Time;durP1;ratioP1;P1;durP2;ratioP2;P2;SDS_P1;SDS_P2;PMS_P1;PMS_P2;Temp;Humidity;BMP_temperature;BMP_pressure;BME280_temperature;BME280_humidity;BME280_pressure;Samples;Min_cycle;Max_cycle;Signal;HPM_P1;HPM_P2
2023/06/21 00:00:36;;;;;;;21.25;16.17;;;;;;;16.91;100.00;101053.63;5053321;28;20468;-48
2023/06/21 00:03:03;;;;;;;18.77;16.33;;;;;;;16.90;100.00;101063.19;5054700;28;20029;-46
2023/06/21 00:05:28;;;;;;;19.10;16.13;;;;;;;16.88;100.00;101066.59;5054178;28;20025;-48
2023/06/21 00:07:54;;;;;;;21.98;16.85;;;;;;;16.88;100.00;101070.06;5054030;28;20025;-47
2023/06/21 00:10:23;;;;;;;19.40;16.33;;;;;;;16.84;100.00;101070.03;5054403;28;20025;-46
2023/06/21 00:12:52;;;;;;;20.33;17.35;;;;;;;16.85;100.00;101069.16;5054290;28;20021;-46
2023/06/21 00:15:18;;;;;;;18.13;16.23;;;;;;;16.83;100.00;101065.69;5053783;28;20423;-47
2023/06/21 00:17:44;;;;;;;18.40;16.25;;;;;;;16.81;100.00;101070.00;5053956;28;20099;-45
2023/06/21 00:20:10;;;;;;;19.63;17.25;;;;;;;16.85;100.00;101080.47;5053996;28;20057;-46
2023/06/21 00:22:36;;;;;;;20.23;17.85;;;;;;;16.85;100.00;101090.88;5053548;28;20036;-48
2023/06/21 00:25:01;;;;;;;21.42;18.23;;;;;;;16.85;100.00;101089.97;5054227;28;20021;-47
2023/06/21 00:27:27;;;;;;;23.23;18.67;;;;;;;16.85;100.00;101090.88;5053573;28;20453;-44
2023/06/21 00:29:52;;;;;;;23.60;19.75;;;;;;;16.87;100.00;101091.72;5053650;28;20116;-45
2023/06/21 00:32:17;;;;;;;20.70;18.35;;;;;;;16.83;100.00;101086.50;5054016;28;20028;-47
2023/06/21 00:34:44;;;;;;;21.98;18.40;;;;;;;16.83;100.00;101081.31;5052843;28;20450;-48
2023/06/21 00:37:11;;;;;;;20.43;18.23;;;;;;;16.81;100.00;101088.22;5054025;28;20040;-47
2023/06/21 00:39:36;;;;;;;22.45;20.05;;;;;;;16.84;100.00;101088.25;5053915;28;20017;-47
2023/06/21 00:42:02;;;;;;;24.15;18.90;;;;;;;16.83;100.00;101086.50;5053145;28;20048;-47
2023/06/21 00:44:27;;;;;;;22.33;18.63;;;;;;;16.77;100.00;101088.22;5053510;28;20027;-47
2023/06/21 00:46:52;;;;;;;23.52;20.00;;;;;;;16.81;100.00;101094.31;5053904;28;20413;-48
2023/06/21 00:49:18;;;;;;;23.30;19.77;;;;;;;16.82;100.00;101095.19;5052647;28;20111;-45
2023/06/21 00:51:44;;;;;;;24.92;20.77;;;;;;;16.83;100.00;101089.13;5053286;28;20078;-47
2023/06/21 00:54:16;;;;;;;22.88;20.17;;;;;;;16.77;100.00;101097.72;5053623;28;20033;-46
2023/06/21 00:56:42;;;;;;;24.52;20.30;;;;;;;16.78;100.00;101091.66;5052617;28;20029;-46
2023/06/21 00:59:09;;;;;;;21.98;19.02;;;;;;;16.78;100.00;101095.16;5053703;28;20021;-47
2023/06/21 01:01:36;;;;;;;22.02;19.23;;;;;;;16.76;100.00;101091.66;5052869;28;20189;-46
2023/06/21 01:04:03;;;;;;;21.35;19.05;;;;;;;16.83;100.00;101097.78;5053083;28;20039;-46
2023/06/21 01:06:45;;;;;;;23.05;19.30;;;;;;;16.76;100.00;101112.50;5053133;28;20100;-48
2023/06/21 01:09:21;;;;;;;23.83;20.27;;;;;;;16.79;100.00;101109.91;5053179;28;20044;-47
2023/06/21 01:12:05;;;;;;;21.02;18.65;;;;;;;16.77;100.00;101109.03;5052592;28;20488;-46
2023/06/21 01:15:04;;;;;;;24.33;19.95;;;;;;;16.79;100.00;101112.50;5053126;28;20052;-45
2023/06/21 01:17:34;;;;;;;24.40;20.40;;;;;;;16.82;100.00;101121.22;5050132;28;20068;-47
2023/06/21 01:20:01;;;;;;;21.73;18.85;;;;;;;16.77;100.00;101111.63;5052949;28;20037;-47
2023/06/21 01:23:06;;;;;;;22.65;19.08;;;;;;;16.75;100.00;101104.66;5052686;28;20017;-45
2023/06/21 01:25:46;;;;;;;25.98;20.52;;;;;;;16.77;100.00;101105.53;5052279;28;20495;-48
2023/06/21 01:28:40;;;;;;;22.70;19.50;;;;;;;16.69;100.00;101108.06;5053054;28;20047;-47
2023/06/21 01:31:06;;;;;;;26.35;20.35;;;;;;;16.71;100.00;101102.91;5052139;28;20630;-47
2023/06/21 01:33:33;;;;;;;23.38;19.95;;;;;;;16.70;100.00;101107.22;5052820;28;20114;-46
2023/06/21 01:36:04;;;;;;;25.75;20.92;;;;;;;16.70;100.00;101107.22;5052910;28;20492;-49
2023/06/21 01:38:29;;;;;;;25.02;21.77;;;;;;;16.73;100.00;101107.28;5051921;28;20457;-48
2023/06/21 01:40:56;;;;;;;24.77;20.35;;;;;;;16.67;100.00;101117.63;5052876;28;20104;-48
2023/06/21 01:43:22;;;;;;;26.90;21.35;;;;;;;16.68;100.00;101119.38;5052779;28;20035;-47
2023/06/21 01:45:49;;;;;;;24.73;21.27;;;;;;;16.67;100.00;101122.81;5052050;28;20484;-46
2023/06/21 01:48:15;;;;;;;26.17;20.73;;;;;;;16.60;100.00;101121.00;5052671;28;20499;-48
2023/06/21 01:50:41;;;;;;;25.02;21.80;;;;;;;16.59;100.00;101125.34;5052370;28;20110;-48
2023/06/21 01:53:07;;;;;;;22.50;19.85;;;;;;;16.58;100.00;101118.41;5052273;28;20021;-48
2023/06/21 01:55:34;;;;;;;21.70;19.35;;;;;;;16.55;100.00;101120.09;5052426;28;20438;-48
2023/06/21 01:57:59;;;;;;;26.65;20.08;;;;;;;16.49;100.00;101117.44;5052590;28;20028;-46
2023/06/21 02:00:26;;;;;;;27.00;21.15;;;;;;;16.54;100.00;101120.94;5051941;28;20079;-48
2023/06/21 02:03:03;;;;;;;25.38;22.42;;;;;;;16.59;100.00;101127.06;5052822;28;20036;-47
2023/06/21 02:05:30;;;;;;;23.75;21.15;;;;;;;16.50;100.00;101129.59;5052091;28;20541;-44
2023/06/21 02:07:56;;;;;;;29.20;21.55;;;;;;;16.51;100.00;101142.59;5051984;28;20100;-45
2023/06/21 02:10:24;;;;;;;23.95;20.67;;;;;;;16.48;100.00;101134.78;5052451;28;20025;-48
2023/06/21 02:12:52;;;;;;;;;;;;;;;16.55;100.00;101146.13;5052892;28;20033;-47
2023/06/21 02:15:18;;;;;;;23.98;20.77;;;;;;;16.42;100.00;101142.53;5052114;28;19950;-44
2023/06/21 02:17:50;;;;;;;24.27;20.13;;;;;;;16.39;100.00;101143.38;5052292;28;20064;-46
2023/06/21 02:20:21;;;;;;;21.42;18.92;;;;;;;16.28;100.00;101139.78;5054739;28;20045;-47
2023/06/21 02:22:47;;;;;;;23.90;19.30;;;;;;;16.26;100.00;101147.56;5056323;28;20101;-48
2023/06/21 02:25:13;;;;;;;27.33;21.95;;;;;;;16.35;100.00;101146.78;5056312;28;20104;-46
2023/06/21 02:27:39;;;;;;;24.92;21.23;;;;;;;16.32;100.00;101146.78;5055466;28;20020;-48
2023/06/21 02:30:07;;;;;;;27.75;22.75;;;;;;;16.35;100.00;101157.19;5056288;28;20550;-47
2023/06/21 02:32:32;;;;;;;27.08;23.48;;;;;;;16.42;100.00;101159.03;5056088;28;20028;-46
2023/06/21 02:34:59;;;;;;;29.33;24.23;;;;;;;16.37;100.00;101152.91;5055513;28;20013;-45
2023/06/21 02:37:24;;;;;;;32.90;25.38;;;;;;;16.39;100.00;101158.09;5055566;28;20492;-47
2023/06/21 02:39:49;;;;;;;29.77;24.73;;;;;;;16.39;100.00;101171.97;5055832;28;20021;-47
2023/06/21 02:42:14;;;;;;;30.23;24.25;;;;;;;16.42;100.00;101181.53;5055680;28;20029;-46
2023/06/21 02:44:41;;;;;;;32.60;26.65;;;;;;;16.40;100.00;101178.06;5055817;28;20426;-44
2023/06/21 02:47:06;;;;;;;31.63;25.55;;;;;;;16.38;100.00;101178.03;5055923;28;20021;-46
2023/06/21 02:49:36;;;;;;;31.55;25.67;;;;;;;16.39;100.00;101182.38;5055163;28;20078;-47
2023/06/21 02:52:02;;;;;;;32.88;25.85;;;;;;;16.36;100.00;101179.75;5055825;28;20025;-47
2023/06/21 02:54:27;;;;;;;34.53;26.52;;;;;;;16.39;100.00;101184.97;5055548;28;20388;-47
2023/06/21 02:56:52;;;;;;;30.88;25.25;;;;;;;16.34;100.00;101178.00;5055459;28;20021;-48
2023/06/21 02:59:18;;;;;;;31.70;27.15;;;;;;;16.34;100.00;101181.47;5055635;28;20025;-46
2023/06/21 03:01:46;;;;;;;32.63;26.48;;;;;;;16.37;100.00;101191.91;5055232;28;20021;-46
2023/06/21 03:04:12;;;;;;;35.03;27.92;;;;;;;16.33;100.00;101197.06;5054941;28;20366;-46
2023/06/21 03:06:37;;;;;;;32.80;27.15;;;;;;;16.32;100.00;101201.41;5055316;28;20021;-45
2023/06/21 03:09:03;;;;;;;34.85;28.15;;;;;;;16.42;100.00;101197.16;5055443;28;20035;-43
2023/06/21 03:11:29;;;;;;;36.33;27.90;;;;;;;16.32;100.00;101204.00;5054974;28;20052;-44
2023/06/21 03:13:54;;;;;;;36.65;28.33;;;;;;;16.33;100.00;101213.53;5055691;28;20052;-45
2023/06/21 03:16:20;;;;;;;33.25;27.33;;;;;;;16.31;100.00;101215.25;5054504;28;20021;-46
2023/06/21 03:18:46;;;;;;;33.55;28.63;;;;;;;16.33;100.00;101220.47;5055026;28;20031;-45
2023/06/21 03:21:11;;;;;;;36.88;28.48;;;;;;;16.31;100.00;101228.25;5055004;28;20044;-46
2023/06/21 03:23:36;;;;;;;36.83;29.45;;;;;;;16.33;100.00;101220.47;5054078;28;20308;-46
2023/06/21 03:26:02;;;;;;;35.65;28.05;;;;;;;16.34;100.00;101225.69;5055347;28;20055;-46
2023/06/21 03:28:27;;;;;;;35.42;28.58;;;;;;;16.38;100.00;101235.25;5054782;28;20087;-46
2023/06/21 03:30:52;;;;;;;32.50;27.38;;;;;;;16.37;100.00;101238.75;5053328;28;20052;-46
2023/06/21 03:33:18;;;;;;;37.25;29.17;;;;;;;16.40;100.00;101237.91;5055209;28;20027;-43
2023/06/21 03:35:43;;;;;;;33.78;28.80;;;;;;;16.41;100.00;101230.09;5054705;28;20082;-47
2023/06/21 03:38:08;;;;;;;36.28;29.38;;;;;;;16.42;100.00;101229.25;5054475;28;20055;-46
2023/06/21 03:40:34;;;;;;;37.65;29.92;;;;;;;16.49;100.00;101225.00;5054759;28;20159;-46
2023/06/21 03:42:59;;;;;;;35.10;29.20;;;;;;;16.46;100.00;101233.63;5054918;28;20048;-47
2023/06/21 03:45:25;;;;;;;36.78;29.98;;;;;;;16.46;100.00;101233.63;5054199;28;20488;-45
2023/06/21 03:47:50;;;;;;;34.22;28.60;;;;;;;16.48;100.00;101238.00;5054872;28;20380;-47
2023/06/21 03:50:15;;;;;;;35.15;28.92;;;;;;;16.52;100.00;101221.56;5054450;28;20394;-46
2023/06/21 03:52:41;;;;;;;37.28;29.35;;;;;;;16.53;100.00;101228.50;5053791;28;20035;-43
2023/06/21 03:55:08;;;;;;;34.20;28.65;;;;;;;16.53;100.00;101233.72;5054855;28;20101;-46
2023/06/21 03:57:33;;;;;;;37.03;29.23;;;;;;;16.54;100.00;101236.31;5054217;28;20031;-42
2023/06/21 03:59:59;;;;;;;33.55;27.88;;;;;;;16.61;100.00;101237.25;5054150;28;20430;-48
2023/06/21 04:02:24;;;;;;;36.60;29.77;;;;;;;16.66;100.00;101238.19;5054238;28;20032;-48
2023/06/21 04:04:50;;;;;;;34.45;28.52;;;;;;;16.73;100.00;101245.22;5054290;28;20031;-47
2023/06/21 04:07:18;;;;;;;38.70;31.13;;;;;;;16.76;100.00;101252.19;5053869;28;20021;-44
2023/06/21 04:09:44;;;;;;;36.83;30.23;;;;;;;16.77;100.00;101252.19;5053983;28;20036;-48
2023/06/21 04:12:10;;;;;;;35.80;28.73;;;;;;;16.81;100.00;101254.81;5054302;28;20112;-47
2023/06/21 04:14:35;;;;;;;37.72;29.52;;;;;;;16.79;100.00;101242.66;5053626;28;20108;-44
2023/06/21 04:17:00;;;;;;;35.50;29.88;;;;;;;16.85;100.00;101246.16;5054319;28;20044;-50
2023/06/21 04:19:26;;;;;;;37.85;30.45;;;;;;;16.83;100.00;101253.13;5053691;28;20025;-46
2023/06/21 04:21:51;;;;;;;38.08;31.70;;;;;;;16.86;100.00;101263.53;5053548;28;20099;-48
2023/06/21 04:24:16;;;;;;;38.08;31.13;;;;;;;16.91;100.00;101272.31;5054381;28;20108;-48
2023/06/21 04:26:41;;;;;;;40.30;33.08;;;;;;;16.88;100.00;101270.50;5053249;28;20029;-44
2023/06/21 04:29:07;;;;;;;41.05;31.85;;;;;;;16.87;100.00;101268.75;5054055;28;20032;-46
2023/06/21 04:31:37;;;;;;;40.47;31.33;;;;;;;16.89;100.00;101276.63;5053735;28;20487;-42
2023/06/21 04:34:03;;;;;;;39.10;31.63;;;;;;;16.87;100.00;101270.50;5053196;28;20489;-47
2023/06/21 04:36:28;;;;;;;40.70;32.17;;;;;;;16.89;100.00;101271.41;5053559;28;20031;-47
2023/06/21 04:38:53;;;;;;;40.97;32.97;;;;;;;16.87;100.00;101275.72;5053926;28;20025;-46
2023/06/21 04:41:19;;;;;;;40.92;32.40;;;;;;;16.88;100.00;101277.47;5052945;28;20071;-44
2023/06/21 04:43:44;;;;;;;41.50;33.70;;;;;;;16.88;100.00;101280.94;5053254;28;20491;-42
2023/06/21 04:46:10;;;;;;;40.80;33.38;;;;;;;16.92;100.00;101289.69;5053710;28;20024;-44
2023/06/21 04:48:36;;;;;;;41.63;34.15;;;;;;;16.94;100.00;101295.78;5052879;28;20392;-43
2023/06/21 04:51:01;;;;;;;43.92;34.83;;;;;;;16.95;100.00;101280.19;5053716;28;20075;-44
2023/06/21 04:53:30;;;;;;;49.03;36.72;;;;;;;16.99;100.00;101286.28;5053373;28;20029;-45
2023/06/21 04:55:57;;;;;;;48.45;38.25;;;;;;;17.05;100.00;101285.47;5053267;28;20021;-47
2023/06/21 04:58:22;;;;;;;48.63;39.63;;;;;;;17.10;100.00;101289.00;5053433;28;20102;-42
2023/06/21 05:00:48;;;;;;;50.88;38.40;;;;;;;17.21;100.00;101274.34;5053447;28;20423;-45
2023/06/21 05:03:13;;;;;;;50.33;40.35;;;;;;;17.13;100.00;101281.19;5052890;28;20032;-43
2023/06/21 05:05:38;;;;;;;51.78;40.83;;;;;;;17.20;100.00;101284.75;5053232;28;20035;-42
2023/06/21 05:08:04;;;;;;;49.05;40.42;;;;;;;17.27;100.00;101294.34;5053401;28;20032;-43
2023/06/21 05:10:30;;;;;;;55.50;42.13;;;;;;;17.30;100.00;101304.81;5052704;28;20027;-43
2023/06/21 05:12:55;;;;;;;52.95;41.33;;;;;;;17.31;100.00;101309.16;5053523;28;20028;-45
2023/06/21 05:15:20;;;;;;;50.10;39.65;;;;;;;17.33;100.00;101304.84;5053132;28;20032;-45
2023/06/21 05:17:46;;;;;;;49.95;39.88;;;;;;;17.34;100.00;101313.50;5052407;28;20024;-45
2023/06/21 05:20:11;;;;;;;47.80;39.95;;;;;;;17.36;100.00;101311.81;5053038;28;20665;-44
2023/06/21 05:22:37;;;;;;;50.15;40.55;;;;;;;17.37;100.00;101319.63;5052873;28;20377;-42
2023/06/21 05:25:04;;;;;;;49.80;40.30;;;;;;;17.40;100.00;101322.28;5052531;28;20041;-42
2023/06/21 05:27:31;;;;;;;46.08;37.83;;;;;;;17.47;100.00;101335.34;5052937;28;20098;-44
2023/06/21 05:29:57;;;;;;;49.47;39.63;;;;;;;17.54;100.00;101342.38;5052166;28;20040;-44
2023/06/21 05:32:25;;;;;;;49.47;40.58;;;;;;;17.60;100.00;101338.06;5052692;28;20029;-42
2023/06/21 05:34:50;;;;;;;48.50;38.80;;;;;;;17.68;100.00;101338.13;5053153;28;20021;-43
2023/06/21 05:37:16;;;;;;;48.30;38.90;;;;;;;17.65;100.00;101335.50;5052352;28;20032;-42
2023/06/21 05:39:43;;;;;;;46.22;36.28;;;;;;;17.64;100.00;101327.66;5052704;28;20855;-43
2023/06/21 05:42:08;;;;;;;39.53;33.75;;;;;;;17.59;100.00;101327.63;5052834;28;20457;-45
2023/06/21 05:44:34;;;;;;;47.28;36.67;;;;;;;17.59;100.00;101330.25;5051771;28;20071;-42
2023/06/21 05:46:59;;;;;;;48.15;35.80;;;;;;;17.57;100.00;101337.16;5052727;28;20021;-44
2023/06/21 05:49:24;;;;;;;46.13;37.53;;;;;;;17.58;100.00;101338.91;5052344;28;20068;-46
2023/06/21 05:51:50;;;;;;;53.13;36.83;;;;;;;17.66;100.00;101345.06;5052242;28;20104;-43
2023/06/21 05:54:15;;;;;;;48.42;37.63;;;;;;;17.68;100.00;101345.09;5052106;28;20396;-42
2023/06/21 05:56:44;;;;;;;46.75;37.28;;;;;;;17.69;100.00;101358.13;5052210;28;20365;-46
2023/06/21 05:59:09;;;;;;;47.13;37.70;;;;;;;17.71;100.00;101356.41;5051946;28;20456;-44
2023/06/21 06:01:35;;;;;;;46.03;37.75;;;;;;;17.72;100.00;101367.72;5052137;28;20071;-43
2023/06/21 06:04:00;;;;;;;48.20;37.55;;;;;;;17.87;100.00;101367.84;5052521;28;20542;-43
2023/06/21 06:06:35;;;;;;;46.75;36.65;;;;;;;18.01;100.00;101364.47;5051951;28;20028;-43
2023/06/21 06:09:00;;;;;;;37.22;33.17;;;;;;;17.98;100.00;101369.69;5052399;28;20381;-41
2023/06/21 06:11:26;;;;;;;37.80;30.65;;;;;;;17.97;100.00;101379.22;5052031;28;20024;-42
2023/06/21 06:13:51;;;;;;;42.03;33.50;;;;;;;18.10;100.00;101381.09;5051959;28;20036;-46
2023/06/21 06:16:16;;;;;;;38.50;32.45;;;;;;;18.16;100.00;101379.38;5052507;28;20544;-44
2023/06/21 06:18:41;;;;;;;38.38;32.80;;;;;;;18.23;100.00;101382.03;5052132;28;20029;-43
2023/06/21 06:21:07;;;;;;;40.75;33.78;;;;;;;18.32;100.00;101380.34;5051688;28;20362;-42
2023/06/21 06:23:32;;;;;;;42.95;33.10;;;;;;;18.34;100.00;101381.22;5052096;28;20047;-41
2023/06/21 06:25:57;;;;;;;35.80;31.27;;;;;;;18.38;100.00;101380.38;5052299;28;20025;-42
2023/06/21 06:28:23;;;;;;;35.20;30.65;;;;;;;18.43;100.00;101389.97;5051572;28;20087;-43
2023/06/21 06:30:48;;;;;;;31.77;26.60;;;;;;;18.42;100.00;101388.25;5052236;28;20380;-42
2023/06/21 06:33:13;;;;;;;30.80;24.80;;;;;;;18.50;100.00;101397.84;5051793;28;20053;-44
2023/06/21 06:35:39;;;;;;;27.65;24.33;;;;;;;18.45;100.00;101404.78;5052166;28;20033;-44
2023/06/21 06:38:04;;;;;;;33.42;26.75;;;;;;;18.59;100.00;101408.31;5052264;28;20104;-42
2023/06/21 06:40:29;;;;;;;34.75;26.40;;;;;;;18.62;100.00;101413.59;5051319;28;20036;-46
2023/06/21 06:42:55;;;;;;;27.92;22.33;;;;;;;18.64;100.00;101411.84;5052336;28;20025;-43
2023/06/21 06:45:26;;;;;;;25.92;22.25;;;;;;;18.62;100.00;101415.31;5052190;28;20016;-45
2023/06/21 06:47:51;;;;;;;26.20;21.70;;;;;;;18.68;100.00;101416.22;5051848;28;20033;-44
2023/06/21 06:50:17;;;;;;;26.75;21.83;;;;;;;18.78;100.00;101429.31;5052028;28;20033;-45
2023/06/21 06:52:42;;;;;;;26.35;21.83;;;;;;;18.88;100.00;101428.50;5051865;28;20025;-44
2023/06/21 06:55:07;;;;;;;26.55;22.70;;;;;;;18.89;100.00;101432.88;5051669;28;20021;-44
2023/06/21 06:57:33;;;;;;;27.08;22.23;;;;;;;18.98;100.00;101430.31;5051803;28;20033;-46
2023/06/21 06:59:58;;;;;;;25.35;21.55;;;;;;;19.02;100.00;101439.06;5051780;28;20099;-43
2023/06/21 07:02:23;;;;;;;25.05;21.65;;;;;;;18.96;100.00;101452.94;5051489;28;20465;-42
2023/06/21 07:04:49;;;;;;;25.90;22.08;;;;;;;19.01;100.00;101455.59;5052833;28;20021;-43
2023/06/21 07:07:14;;;;;;;31.83;21.95;;;;;;;19.08;100.00;101458.22;5055323;28;20025;-46
2023/06/21 07:09:39;;;;;;;24.40;20.30;;;;;;;19.06;100.00;101449.50;5054740;28;20033;-43
2023/06/21 07:12:05;;;;;;;24.77;18.70;;;;;;;19.16;100.00;101449.53;5055451;28;20025;-43
2023/06/21 07:14:30;;;;;;;21.20;18.38;;;;;;;19.30;100.00;101452.19;5054690;28;20086;-44
2023/06/21 07:16:55;;;;;;;23.65;18.38;;;;;;;19.39;100.00;101458.34;5055096;28;20036;-43
2023/06/21 07:19:21;;;;;;;18.80;15.10;;;;;;;19.43;100.00;101446.13;5055623;28;20037;-43
2023/06/21 07:21:46;;;;;;;17.08;14.90;;;;;;;19.53;100.00;101454.88;5054687;28;20048;-46
2023/06/21 07:24:12;;;;;;;20.05;15.68;;;;;;;19.63;100.00;101445.31;5055028;28;20033;-47
2023/06/21 07:26:38;;;;;;;17.73;14.15;;;;;;;19.74;100.00;101452.28;5055072;28;20025;-47
2023/06/21 07:29:04;;;;;;;14.17;12.07;;;;;;;19.74;100.00;101451.41;5054828;28;20032;-46
2023/06/21 07:31:31;;;;;;;14.85;12.55;;;;;;;19.87;100.00;101457.56;5054441;28;20021;-48
2023/06/21 07:33:57;;;;;;;14.05;11.75;;;;;;;19.85;100.00;101456.69;5055280;28;20052;-42
2023/06/21 07:36:22;;;;;;;15.75;12.45;;;;;;;19.93;100.00;101454.94;5054874;28;20469;-43
2023/06/21 07:38:48;;;;;;;15.23;12.13;;;;;;;19.97;100.00;101456.69;5054529;28;20021;-42
2023/06/21 07:41:14;;;;;;;16.30;12.05;;;;;;;19.95;100.00;101457.56;5055010;28;20076;-46
2023/06/21 07:43:39;;;;;;;15.25;12.45;;;;;;;20.09;100.00;101455.84;5053946;28;20025;-47
2023/06/21 07:46:04;;;;;;;17.35;13.10;;;;;;;20.15;100.00;101466.28;5055089;28;20036;-42
2023/06/21 07:48:29;;;;;;;15.60;12.90;;;;;;;20.26;100.00;101471.53;5054628;28;20370;-42
2023/06/21 07:50:55;;;;;;;17.05;13.75;;;;;;;20.27;100.00;101470.66;5054519;28;20104;-43
2023/06/21 07:53:20;;;;;;;17.33;14.27;;;;;;;20.44;100.00;101467.13;5054825;28;20031;-42
2023/06/21 07:55:45;;;;;;;16.35;14.63;;;;;;;20.40;100.00;101468.91;5054213;28;20469;-44
2023/06/21 07:58:11;;;;;;;21.30;15.88;;;;;;;20.39;100.00;101472.41;5054088;28;20052;-43
2023/06/21 08:00:36;;;;;;;20.52;15.98;;;;;;;20.48;100.00;101471.50;5054243;28;20029;-42
2023/06/21 08:03:02;;;;;;;17.13;15.23;;;;;;;20.62;100.00;101469.75;5054511;28;20026;-44
2023/06/21 08:05:27;;;;;;;17.85;14.82;;;;;;;20.76;100.00;101469.75;5053834;28;20432;-47
2023/06/21 08:07:53;;;;;;;16.70;14.93;;;;;;;20.88;100.00;101472.31;5054544;28;20029;-42
2023/06/21 08:10:19;;;;;;;19.85;16.95;;;;;;;20.97;100.00;101474.03;5054048;28;20419;-45
2023/06/21 08:12:44;;;;;;;19.30;17.20;;;;;;;21.21;100.00;101480.03;5053481;28;20104;-47
2023/06/21 08:15:10;;;;;;;21.60;18.08;;;;;;;21.16;100.00;101489.66;5054585;28;20025;-43
2023/06/21 08:17:36;;;;;;;20.92;17.45;;;;;;;21.20;100.00;101483.53;5053368;28;20354;-46
2023/06/21 08:20:03;;;;;;;18.73;16.48;;;;;;;21.28;100.00;101491.34;5053654;28;20154;-46
2023/06/21 08:22:28;;;;;;;17.45;14.80;;;;;;;21.45;100.00;101488.69;5054260;28;20131;-43
2023/06/21 08:24:56;;;;;;;16.90;15.02;;;;;;;21.43;99.13;101496.53;5053992;28;20544;-42
2023/06/21 08:27:22;;;;;;;16.52;14.73;;;;;;;21.53;100.00;101492.13;5053535;28;20079;-44
2023/06/21 08:29:47;;;;;;;18.10;16.20;;;;;;;21.43;97.34;101495.66;5054241;28;20033;-44
2023/06/21 08:32:12;;;;;;;17.95;15.75;;;;;;;21.52;100.00;101490.38;5054026;28;20040;-47
2023/06/21 08:34:39;;;;;;;16.05;14.40;;;;;;;21.51;96.70;101497.38;5053072;28;20047;-45
2023/06/21 08:37:04;;;;;;;15.27;13.35;;;;;;;21.63;96.71;101495.59;5054098;28;20080;-43
2023/06/21 08:39:30;;;;;;;15.10;13.48;;;;;;;21.74;97.30;101495.53;5053438;28;20448;-43
2023/06/21 08:41:55;;;;;;;16.33;12.00;;;;;;;21.69;92.89;101496.44;5053303;28;20075;-46
2023/06/21 08:44:20;;;;;;;14.27;11.70;;;;;;;21.79;92.46;101496.38;5053971;28;20036;-42
2023/06/21 08:46:48;;;;;;;14.32;12.77;;;;;;;21.73;91.93;101493.78;5053462;28;20103;-47
2023/06/21 08:49:17;;;;;;;15.93;13.10;;;;;;;21.91;93.02;101498.03;5053229;28;20037;-44
2023/06/21 08:51:44;;;;;;;14.27;12.32;;;;;;;22.15;95.09;101492.59;5053362;28;20070;-44
2023/06/21 08:54:10;;;;;;;13.48;12.05;;;;;;;22.23;93.27;101500.41;5053290;28;20024;-47
2023/06/21 08:56:59;;;;;;;12.55;10.13;;;;;;;22.26;87.58;101497.75;5053158;28;20179;-46
2023/06/21 08:59:32;;;;;;;14.60;10.70;;;;;;;22.27;87.81;101502.13;5052920;28;20536;-48
2023/06/21 09:02:06;;;;;;;14.73;10.43;;;;;;;22.38;88.12;101506.44;5052986;28;20024;-43
2023/06/21 09:04:40;;;;;;;12.10;10.02;;;;;;;22.33;84.95;101507.31;5053181;28;20020;-48
2023/06/21 09:07:07;;;;;;;9.43;7.93;;;;;;;22.28;82.33;101510.88;5053160;28;20494;-42
2023/06/21 09:09:32;;;;;;;11.43;7.80;;;;;;;22.48;83.99;101505.47;5052616;28;20124;-45
2023/06/21 09:11:58;;;;;;;11.75;9.07;;;;;;;22.57;84.27;101508.00;5053347;28;20100;-44
2023/06/21 09:14:31;;;;;;;13.13;10.30;;;;;;;22.68;83.33;101510.53;5052894;28;20430;-45
2023/06/21 09:16:58;;;;;;;11.55;8.05;;;;;;;22.88;83.75;101505.06;5052720;28;20465;-45
2023/06/21 09:19:24;;;;;;;11.15;6.60;;;;;;;22.79;76.59;101502.53;5052808;28;20075;-43
2023/06/21 09:21:49;;;;;;;11.23;6.65;;;;;;;22.95;77.59;101513.75;5052695;28;20049;-44
2023/06/21 09:24:15;;;;;;;10.60;7.93;;;;;;;23.02;77.85;101516.28;5052518;28;20036;-42
2023/06/21 09:26:40;;;;;;;11.63;7.05;;;;;;;23.21;80.46;101520.50;5052845;28;20017;-44
2023/06/21 09:29:05;;;;;;;10.68;6.88;;;;;;;23.31;75.31;101522.09;5051423;28;20036;-44
2023/06/21 09:31:31;;;;;;;10.23;7.47;;;;;;;23.30;73.42;101528.25;5052827;28;20020;-46
2023/06/21 09:33:57;;;;;;;11.52;7.30;;;;;;;23.49;74.60;101516.59;5052750;28;20025;-45
2023/06/21 09:36:24;;;;;;;11.68;7.45;;;;;;;23.85;77.86;101518.72;5051962;28;20737;-44
2023/06/21 09:38:49;;;;;;;11.15;8.50;;;;;;;23.75;71.72;101525.03;5053035;28;20021;-44
2023/06/21 09:41:17;;;;;;;11.50;8.70;;;;;;;23.89;73.04;101528.31;5052526;28;20035;-46
2023/06/21 09:43:43;;;;;;;11.07;8.10;;;;;;;24.02;71.95;101536.06;5051998;28;20106;-42
2023/06/21 09:46:12;;;;;;;10.18;8.43;;;;;;;24.43;71.27;101523.97;5052822;28;20041;-42
2023/06/21 09:48:41;;;;;;;13.40;9.50;;;;;;;24.08;72.44;101541.22;5052167;28;20017;-43
2023/06/21 09:51:11;;;;;;;12.73;8.18;;;;;;;23.89;69.21;101541.47;5052182;28;20469;-43
2023/06/21 09:53:40;;;;;;;10.55;8.90;;;;;;;23.83;69.88;101531.94;5052583;28;20049;-44
2023/06/21 09:56:06;;;;;;;10.57;6.18;;;;;;;24.23;67.17;101530.44;5052539;28;20056;-45
2023/06/21 09:58:34;;;;;;;11.32;4.63;;;;;;;24.29;63.00;101535.59;5051888;28;20480;-47
2023/06/21 10:00:59;;;;;;;8.05;4.65;;;;;;;24.42;62.42;101540.69;5052645;28;20420;-46
2023/06/21 10:03:25;;;;;;;6.85;5.07;;;;;;;24.43;63.93;101531.88;5052039;28;20095;-47
2023/06/21 10:05:58;;;;;;;9.15;6.72;;;;;;;24.65;65.47;101538.53;5052369;28;20029;-46
2023/06/21 10:08:33;;;;;;;10.68;7.28;;;;;;;24.94;64.05;101545.00;5052300;28;20031;-41
2023/06/21 10:10:59;;;;;;;9.13;7.47;;;;;;;25.39;64.40;101540.66;5052428;28;20029;-43
2023/06/21 10:13:26;;;;;;;9.43;7.37;;;;;;;25.82;64.46;101546.72;5051666;28;20048;-43
2023/06/21 10:15:52;;;;;;;7.97;6.00;;;;;;;26.02;60.96;101551.56;5052265;28;20029;-43
2023/06/21 10:18:18;;;;;;;8.55;5.35;;;;;;;25.78;56.45;101549.47;5051863;28;20027;-44
2023/06/21 10:20:44;;;;;;;5.57;3.55;;;;;;;25.97;55.45;101557.78;5052089;28;20049;-44
2023/06/21 10:23:13;;;;;;;6.47;3.50;;;;;;;26.26;55.45;101561.56;5052382;28;20037;-47
2023/06/21 10:25:42;;;;;;;8.10;4.53;;;;;;;26.16;52.61;101567.97;5051564;28;20029;-43
2023/06/21 10:28:10;;;;;;;8.23;5.25;;;;;;;26.40;51.93;101571.78;5052327;28;20365;-45
2023/06/21 10:30:38;;;;;;;9.85;4.45;;;;;;;27.23;51.24;101574.00;5051993;28;20029;-47
2023/06/21 10:33:03;;;;;;;9.95;5.45;;;;;;;27.17;49.47;101570.66;5051835;28;20668;-42
2023/06/21 10:35:33;;;;;;;7.05;4.93;;;;;;;28.09;50.36;101577.63;5052266;28;20134;-45
2023/06/21 10:38:08;;;;;;;7.65;3.90;;;;;;;29.19;45.96;101574.75;5052184;28;20074;-48
2023/06/21 10:40:35;;;;;;;7.85;4.75;;;;;;;28.90;44.12;101581.13;5053356;28;20025;-46
2023/06/21 10:43:01;;;;;;;10.98;4.85;;;;;;;28.95;44.41;101578.28;5056020;28;20385;-43
2023/06/21 10:45:28;;;;;;;8.68;4.35;;;;;;;29.94;42.09;101575.44;5055607;28;20411;-46
2023/06/21 10:47:57;;;;;;;7.60;4.35;;;;;;;30.10;42.23;101580.13;5055663;28;20025;-49
2023/06/21 10:50:24;;;;;;;7.18;4.50;;;;;;;29.69;42.98;101586.19;5055830;28;20078;-43
2023/06/21 10:52:54;;;;;;;8.30;4.22;;;;;;;29.66;43.47;101588.97;5055698;28;20025;-47
2023/06/21 10:55:21;;;;;;;7.68;3.83;;;;;;;29.34;42.06;101589.25;5055349;28;20025;-45
2023/06/21 10:57:50;;;;;;;;;;;;;;;29.87;41.92;101596.09;5055868;28;20055;-44
2023/06/21 11:00:15;;;;;;;6.70;3.53;;;;;;;30.39;41.17;101592.22;5055694;28;19912;-46
2023/06/21 11:02:41;;;;;;;8.32;4.90;;;;;;;30.12;41.02;101589.78;5054917;28;20483;-48
2023/06/21 11:05:15;;;;;;;8.90;4.80;;;;;;;30.62;41.56;101588.63;5055479;28;20055;-45